sensor_id;sensor_type;location;lat;lon;timestamp;pressure;altitude;pressure_sealevel;temperature;humidity
12475;BME280;6302;42.624;23.334;2022-08-02T00:01:41;93195.69;;;19.94;61.58
12475;BME280;6302;42.624;23.334;2022-08-02T00:04:09;93195.69;;;19.94;61.66
12475;BME280;6302;42.624;23.334;2022-08-02T00:06:37;93190.31;;;19.94;62.16
12475;BME280;6302;42.624;23.334;2022-08-02T00:09:05;93197.75;;;19.99;62.01
12475;BME280;6302;42.624;23.334;2022-08-02T00:11:32;93182.53;;;19.96;62.11
12475;BME280;6302;42.624;23.334;2022-08-02T00:13:59;93182.22;;;19.94;62.64
12475;BME280;6302;42.624;23.334;2022-08-02T00:16:26;93191.50;;;19.93;62.90
12475;BME280;6302;42.624;23.334;2022-08-02T00:18:53;93183.41;;;19.93;63.43
12475;BME280;6302;42.624;23.334;2022-08-02T00:21:20;93181.34;;;19.88;63.53
12475;BME280;6302;42.624;23.334;2022-08-02T00:23:47;93158.97;;;19.73;64.03
12475;BME280;6302;42.624;23.334;2022-08-02T00:26:15;93187.75;;;19.91;63.93
12475;BME280;6302;42.624;23.334;2022-08-02T00:28:42;93188.22;;;19.89;64.37
12475;BME280;6302;42.624;23.334;2022-08-02T00:31:09;93182.25;;;19.85;65.15
12475;BME280;6302;42.624;23.334;2022-08-02T00:33:35;93178.22;;;19.81;64.62
12475;BME280;6302;42.624;23.334;2022-08-02T00:36:03;93184.31;;;19.90;64.48
12475;BME280;6302;42.624;23.334;2022-08-02T00:38:29;93169.41;;;19.89;64.14
12475;BME280;6302;42.624;23.334;2022-08-02T00:40:56;93153.25;;;19.89;63.49
12475;BME280;6302;42.624;23.334;2022-08-02T00:43:25;93168.47;;;20.01;63.07
12475;BME280;6302;42.624;23.334;2022-08-02T00:45:51;93167.41;;;19.99;62.87
12475;BME280;6302;42.624;23.334;2022-08-02T00:48:18;93166.63;;;20.07;62.12
12475;BME280;6302;42.624;23.334;2022-08-02T00:50:45;93148.47;;;19.93;61.02
12475;BME280;6302;42.624;23.334;2022-08-02T00:53:12;93171.56;;;20.09;60.84
12475;BME280;6302;42.624;23.334;2022-08-02T00:55:39;93175.16;;;20.06;60.24
12475;BME280;6302;42.624;23.334;2022-08-02T00:58:05;93167.22;;;20.11;59.66
12475;BME280;6302;42.624;23.334;2022-08-02T01:00:34;93163.94;;;20.07;58.94
12475;BME280;6302;42.624;23.334;2022-08-02T01:03:01;93165.28;;;20.12;57.87
12475;BME280;6302;42.624;23.334;2022-08-02T01:05:28;93166.63;;;20.07;58.00
12475;BME280;6302;42.624;23.334;2022-08-02T01:07:55;93167.66;;;20.10;57.35
12475;BME280;6302;42.624;23.334;2022-08-02T01:10:22;93161.50;;;20.19;56.91
12475;BME280;6302;42.624;23.334;2022-08-02T01:12:49;93167.03;;;20.15;57.02
12475;BME280;6302;42.624;23.334;2022-08-02T01:15:16;93163.31;;;20.12;56.51
12475;BME280;6302;42.624;23.334;2022-08-02T01:17:49;93154.91;;;20.20;56.31
12475;BME280;6302;42.624;23.334;2022-08-02T01:20:45;93152.97;;;20.20;56.63
12475;BME280;6302;42.624;23.334;2022-08-02T01:23:27;93154.91;;;20.20;56.19
12475;BME280;6302;42.624;23.334;2022-08-02T01:26:07;93158.97;;;20.24;56.41
12475;BME280;6302;42.624;23.334;2022-08-02T01:28:38;93170.16;;;20.32;56.19
12475;BME280;6302;42.624;23.334;2022-08-02T01:31:13;93147.34;;;20.09;61.03
12475;BME280;6302;42.624;23.334;2022-08-02T01:33:44;93169.22;;;20.02;67.67
12475;BME280;6302;42.624;23.334;2022-08-02T01:36:16;93135.41;;;19.68;71.67
12475;BME280;6302;42.624;23.334;2022-08-02T01:38:47;93166.91;;;19.77;73.44
12475;BME280;6302;42.624;23.334;2022-08-02T01:41:18;93170.94;;;19.63;75.11
12475;BME280;6302;42.624;23.334;2022-08-02T01:43:48;93162.34;;;19.50;77.13
12475;BME280;6302;42.624;23.334;2022-08-02T01:46:18;93170.84;;;19.39;79.52
12475;BME280;6302;42.624;23.334;2022-08-02T01:48:46;93155.00;;;19.23;79.77
12475;BME280;6302;42.624;23.334;2022-08-02T01:51:16;93147.41;;;19.04;82.08
12475;BME280;6302;42.624;23.334;2022-08-02T01:53:46;93162.66;;;19.16;82.57
12475;BME280;6302;42.624;23.334;2022-08-02T01:56:15;93160.84;;;19.04;83.47
12475;BME280;6302;42.624;23.334;2022-08-02T01:58:44;93168.00;;;18.98;83.77
12475;BME280;6302;42.624;23.334;2022-08-02T02:01:13;93168.91;;;18.86;84.30
12475;BME280;6302;42.624;23.334;2022-08-02T02:03:43;93177.97;;;18.70;84.90
12475;BME280;6302;42.624;23.334;2022-08-02T02:06:11;93166.94;;;18.59;85.94
12475;BME280;6302;42.624;23.334;2022-08-02T02:08:39;93173.75;;;18.42;89.89
12475;BME280;6302;42.624;23.334;2022-08-02T02:11:07;93158.63;;;18.26;89.60
12475;BME280;6302;42.624;23.334;2022-08-02T02:13:36;93176.53;;;18.29;90.21
12475;BME280;6302;42.624;23.334;2022-08-02T02:16:07;93148.47;;;18.12;91.73
12475;BME280;6302;42.624;23.334;2022-08-02T02:18:38;93165.00;;;18.19;93.01
12475;BME280;6302;42.624;23.334;2022-08-02T02:21:08;93178.56;;;18.16;94.38
12475;BME280;6302;42.624;23.334;2022-08-02T02:23:35;93171.09;;;18.11;95.33
12475;BME280;6302;42.624;23.334;2022-08-02T02:26:03;93169.59;;;18.10;95.90
12475;BME280;6302;42.624;23.334;2022-08-02T02:28:31;93164.81;;;18.05;96.89
12475;BME280;6302;42.624;23.334;2022-08-02T02:31:03;93138.34;;;17.76;97.20
12475;BME280;6302;42.624;23.334;2022-08-02T02:33:34;93171.78;;;17.93;96.86
12475;BME280;6302;42.624;23.334;2022-08-02T02:36:07;93041.34;;;16.98;97.12
12475;BME280;6302;42.624;23.334;2022-08-02T02:38:35;93171.44;;;17.82;99.03
12475;BME280;6302;42.624;23.334;2022-08-02T02:41:04;93138.09;;;17.52;100.00
12475;BME280;6302;42.624;23.334;2022-08-02T02:43:33;93148.25;;;17.58;100.00
12475;BME280;6302;42.624;23.334;2022-08-02T02:46:02;93148.34;;;17.54;100.00
12475;BME280;6302;42.624;23.334;2022-08-02T02:48:31;93168.34;;;17.62;100.00
12475;BME280;6302;42.624;23.334;2022-08-02T02:51:03;93178.59;;;17.54;100.00
12475;BME280;6302;42.624;23.334;2022-08-02T02:53:31;93162.94;;;17.53;100.00
12475;BME280;6302;42.624;23.334;2022-08-02T02:55:59;93174.06;;;17.51;100.00
12475;BME280;6302;42.624;23.334;2022-08-02T02:58:27;93046.22;;;16.69;100.00
12475;BME280;6302;42.624;23.334;2022-08-02T03:00:55;93092.59;;;16.87;100.00
12475;BME280;6302;42.624;23.334;2022-08-02T03:03:40;93164.63;;;17.38;100.00
12475;BME280;6302;42.624;23.334;2022-08-02T03:06:10;93170.84;;;17.35;98.58
12475;BME280;6302;42.624;23.334;2022-08-02T03:08:37;93174.59;;;17.37;100.00
12475;BME280;6302;42.624;23.334;2022-08-02T03:11:04;93170.84;;;17.35;100.00
12475;BME280;6302;42.624;23.334;2022-08-02T03:13:32;93177.38;;;17.34;100.00
12475;BME280;6302;42.624;23.334;2022-08-02T03:16:00;93175.44;;;17.34;100.00
12475;BME280;6302;42.624;23.334;2022-08-02T03:18:31;93172.03;;;17.34;100.00
12475;BME280;6302;42.624;23.334;2022-08-02T03:20:59;93185.41;;;17.34;99.55
12475;BME280;6302;42.624;23.334;2022-08-02T03:23:28;93100.22;;;16.76;99.84
12475;BME280;6302;42.624;23.334;2022-08-02T03:25:56;93137.47;;;17.05;100.00
12475;BME280;6302;42.624;23.334;2022-08-02T03:28:22;93177.06;;;17.32;100.00
12475;BME280;6302;42.624;23.334;2022-08-02T03:30:49;93171.72;;;17.32;99.60
12475;BME280;6302;42.624;23.334;2022-08-02T03:33:17;93172.22;;;17.39;100.00
12475;BME280;6302;42.624;23.334;2022-08-02T03:35:47;93176.38;;;17.40;100.00
12475;BME280;6302;42.624;23.334;2022-08-02T03:38:15;93175.63;;;17.40;100.00
12475;BME280;6302;42.624;23.334;2022-08-02T03:40:45;93170.59;;;17.42;100.00
12475;BME280;6302;42.624;23.334;2022-08-02T03:43:13;93130.84;;;17.19;100.00
12475;BME280;6302;42.624;23.334;2022-08-02T03:45:42;93177.44;;;17.43;100.00
12475;BME280;6302;42.624;23.334;2022-08-02T03:48:10;93182.66;;;17.46;100.00
12475;BME280;6302;42.624;23.334;2022-08-02T03:50:38;93186.09;;;17.47;100.00
12475;BME280;6302;42.624;23.334;2022-08-02T03:53:07;93187.28;;;17.46;100.00
12475;BME280;6302;42.624;23.334;2022-08-02T03:55:34;93196.06;;;17.46;100.00
12475;BME280;6302;42.624;23.334;2022-08-02T03:58:03;93195.50;;;17.51;100.00
12475;BME280;6302;42.624;23.334;2022-08-02T04:00:30;93189.31;;;17.54;100.00
12475;BME280;6302;42.624;23.334;2022-08-02T04:02:57;93196.59;;;17.54;97.33
12475;BME280;6302;42.624;23.334;2022-08-02T04:05:24;93212.84;;;17.60;96.84
12475;BME280;6302;42.624;23.334;2022-08-02T04:07:51;93204.19;;;17.55;96.88
12475;BME280;6302;42.624;23.334;2022-08-02T04:10:18;93211.41;;;17.68;96.14
12475;BME280;6302;42.624;23.334;2022-08-02T04:12:45;93197.38;;;17.64;96.21
12475;BME280;6302;42.624;23.334;2022-08-02T04:15:14;93217.44;;;17.81;96.21
12475;BME280;6302;42.624;23.334;2022-08-02T04:17:44;93220.75;;;17.85;95.90
12475;BME280;6302;42.624;23.334;2022-08-02T04:20:17;93223.44;;;17.85;94.65
12475;BME280;6302;42.624;23.334;2022-08-02T04:22:52;93200.09;;;17.73;94.27
12475;BME280;6302;42.624;23.334;2022-08-02T04:25:21;93235.31;;;17.84;93.83
12475;BME280;6302;42.624;23.334;2022-08-02T04:27:49;93229.50;;;17.85;94.15
12475;BME280;6302;42.624;23.334;2022-08-02T04:30:19;93218.06;;;17.85;94.05
12475;BME280;6302;42.624;23.334;2022-08-02T04:32:46;93227.00;;;17.91;95.07
12475;BME280;6302;42.624;23.334;2022-08-02T04:35:14;93216.28;;;17.91;94.67
12475;BME280;6302;42.624;23.334;2022-08-02T04:37:41;93164.34;;;17.67;94.35
12475;BME280;6302;42.624;23.334;2022-08-02T04:40:10;93222.53;;;18.18;94.14
12475;BME280;6302;42.624;23.334;2022-08-02T04:42:37;93227.94;;;18.28;93.53
12475;BME280;6302;42.624;23.334;2022-08-02T04:45:06;93222.16;;;18.38;91.96
12475;BME280;6302;42.624;23.334;2022-08-02T04:47:34;93213.22;;;18.41;91.27
12475;BME280;6302;42.624;23.334;2022-08-02T04:50:02;93213.22;;;18.41;89.69
12475;BME280;6302;42.624;23.334;2022-08-02T04:52:29;93216.25;;;18.52;90.32
12475;BME280;6302;42.624;23.334;2022-08-02T04:54:56;93221.78;;;18.58;88.11
12475;BME280;6302;42.624;23.334;2022-08-02T04:57:23;93188.34;;;18.41;90.31
12475;BME280;6302;42.624;23.334;2022-08-02T05:00:08;93197.47;;;18.52;88.47
12475;BME280;6302;42.624;23.334;2022-08-02T05:02:36;93015.06;;;17.45;88.82
12475;BME280;6302;42.624;23.334;2022-08-02T05:05:04;93221.41;;;18.87;89.62
12475;BME280;6302;42.624;23.334;2022-08-02T05:07:31;93223.66;;;18.97;89.05
12475;BME280;6302;42.624;23.334;2022-08-02T05:09:57;93224.56;;;19.03;89.60
12475;BME280;6302;42.624;23.334;2022-08-02T05:12:24;93224.72;;;19.18;86.63
12475;BME280;6302;42.624;23.334;2022-08-02T05:14:51;93207.69;;;19.12;87.01
12475;BME280;6302;42.624;23.334;2022-08-02T05:17:18;93228.44;;;19.29;87.84
12475;BME280;6302;42.624;23.334;2022-08-02T05:19:46;93242.38;;;19.37;87.03
12475;BME280;6302;42.624;23.334;2022-08-02T05:22:13;93237.28;;;19.48;86.19
12475;BME280;6302;42.624;23.334;2022-08-02T05:24:40;93236.53;;;19.57;85.67
12475;BME280;6302;42.624;23.334;2022-08-02T05:27:07;93238.75;;;19.58;87.10
12475;BME280;6302;42.624;23.334;2022-08-02T05:29:33;93243.53;;;19.72;86.28
12475;BME280;6302;42.624;23.334;2022-08-02T05:32:00;93244.69;;;19.80;85.75
12475;BME280;6302;42.624;23.334;2022-08-02T05:34:27;93231.56;;;19.82;86.15
12475;BME280;6302;42.624;23.334;2022-08-02T05:36:55;93239.03;;;19.87;86.71
12475;BME280;6302;42.624;23.334;2022-08-02T05:39:22;93249.44;;;20.03;84.65
12475;BME280;6302;42.624;23.334;2022-08-02T05:41:49;93255.72;;;20.09;81.89
12475;BME280;6302;42.624;23.334;2022-08-02T05:44:16;93228.69;;;19.95;81.69
12475;BME280;6302;42.624;23.334;2022-08-02T05:46:43;93244.97;;;20.09;82.36
12475;BME280;6302;42.624;23.334;2022-08-02T05:49:09;93257.41;;;20.40;79.36
12475;BME280;6302;42.624;23.334;2022-08-02T05:51:38;93266.13;;;20.35;76.41
12475;BME280;6302;42.624;23.334;2022-08-02T05:54:19;93268.47;;;20.42;76.02
12475;BME280;6302;42.624;23.334;2022-08-02T05:56:50;93265.47;;;20.49;75.66
12475;BME280;6302;42.624;23.334;2022-08-02T05:59:27;93259.75;;;20.56;75.26
12475;BME280;6302;42.624;23.334;2022-08-02T06:02:02;93231.97;;;20.50;75.32
12475;BME280;6302;42.624;23.334;2022-08-02T06:04:33;93269.03;;;20.88;71.78
12475;BME280;6302;42.624;23.334;2022-08-02T06:07:08;93274.63;;;20.99;70.16
12475;BME280;6302;42.624;23.334;2022-08-02T06:09:37;93275.31;;;21.17;67.64
12475;BME280;6302;42.624;23.334;2022-08-02T06:12:05;93276.78;;;21.18;64.59
12475;BME280;6302;42.624;23.334;2022-08-02T06:14:35;93272.84;;;21.28;63.48
12475;BME280;6302;42.624;23.334;2022-08-02T06:17:03;93276.47;;;21.25;64.55
12475;BME280;6302;42.624;23.334;2022-08-02T06:19:30;93278.47;;;21.39;63.26
12475;BME280;6302;42.624;23.334;2022-08-02T06:21:58;93281.09;;;21.49;63.07
12475;BME280;6302;42.624;23.334;2022-08-02T06:24:41;93282.31;;;21.48;61.03
12475;BME280;6302;42.624;23.334;2022-08-02T06:27:09;93286.94;;;21.47;61.25
12475;BME280;6302;42.624;23.334;2022-08-02T06:29:36;93287.50;;;21.51;60.43
12475;BME280;6302;42.624;23.334;2022-08-02T06:32:05;93285.75;;;21.63;61.02
12475;BME280;6302;42.624;23.334;2022-08-02T06:34:35;93283.72;;;21.58;59.74
12475;BME280;6302;42.624;23.334;2022-08-02T06:37:10;93283.53;;;21.61;60.53
12475;BME280;6302;42.624;23.334;2022-08-02T06:39:43;93298.28;;;21.75;58.82
12475;BME280;6302;42.624;23.334;2022-08-02T06:42:12;93296.41;;;21.81;59.48
12475;BME280;6302;42.624;23.334;2022-08-02T06:44:40;93299.03;;;21.90;57.48
12475;BME280;6302;42.624;23.334;2022-08-02T06:47:07;93303.41;;;21.87;59.37
12475;BME280;6302;42.624;23.334;2022-08-02T06:49:34;93301.81;;;21.81;58.19
12475;BME280;6302;42.624;23.334;2022-08-02T06:52:01;93291.91;;;21.87;59.00
12475;BME280;6302;42.624;23.334;2022-08-02T06:54:28;93285.78;;;22.01;60.47
12475;BME280;6302;42.624;23.334;2022-08-02T06:56:57;93293.75;;;22.10;59.37
12475;BME280;6302;42.624;23.334;2022-08-02T06:59:23;93287.28;;;22.17;59.15
12475;BME280;6302;42.624;23.334;2022-08-02T07:01:50;93282.03;;;22.13;58.61
12475;BME280;6302;42.624;23.334;2022-08-02T07:04:17;93292.84;;;22.13;59.17
12475;BME280;6302;42.624;23.334;2022-08-02T07:06:44;93296.56;;;22.16;59.80
12475;BME280;6302;42.624;23.334;2022-08-02T07:09:11;93287.91;;;22.26;61.53
12475;BME280;6302;42.624;23.334;2022-08-02T07:11:38;93290.25;;;22.33;58.79
12475;BME280;6302;42.624;23.334;2022-08-02T07:14:06;93283.16;;;22.21;58.44
12475;BME280;6302;42.624;23.334;2022-08-02T07:16:33;93284.09;;;22.18;58.76
12475;BME280;6302;42.624;23.334;2022-08-02T07:19:00;93289.50;;;22.18;59.45
12475;BME280;6302;42.624;23.334;2022-08-02T07:21:26;93291.44;;;22.32;60.90
12475;BME280;6302;42.624;23.334;2022-08-02T07:23:53;93293.75;;;22.39;59.47
12475;BME280;6302;42.624;23.334;2022-08-02T07:26:20;93287.81;;;22.50;59.82
12475;BME280;6302;42.624;23.334;2022-08-02T07:28:47;93289.56;;;22.67;61.01
12475;BME280;6302;42.624;23.334;2022-08-02T07:31:15;93295.63;;;22.62;60.04
12475;BME280;6302;42.624;23.334;2022-08-02T07:33:42;93293.47;;;22.66;58.71
12475;BME280;6302;42.624;23.334;2022-08-02T07:36:09;93282.00;;;22.72;59.32
12475;BME280;6302;42.624;23.334;2022-08-02T07:38:35;93286.97;;;22.73;58.97
12475;BME280;6302;42.624;23.334;2022-08-02T07:41:02;93288.00;;;22.76;58.04
12475;BME280;6302;42.624;23.334;2022-08-02T07:43:29;93279.38;;;22.92;58.35
12475;BME280;6302;42.624;23.334;2022-08-02T07:45:56;93284.59;;;22.95;58.86
12475;BME280;6302;42.624;23.334;2022-08-02T07:48:24;93285.63;;;23.18;59.42
12475;BME280;6302;42.624;23.334;2022-08-02T07:50:51;93286.16;;;23.22;58.06
12475;BME280;6302;42.624;23.334;2022-08-02T07:53:18;93281.78;;;23.24;57.34
12475;BME280;6302;42.624;23.334;2022-08-02T07:55:45;93285.94;;;23.40;55.67
12475;BME280;6302;42.624;23.334;2022-08-02T07:58:12;93285.28;;;23.45;55.91
12475;BME280;6302;42.624;23.334;2022-08-02T08:00:41;93287.00;;;23.48;56.43
12475;BME280;6302;42.624;23.334;2022-08-02T08:03:08;93241.03;;;23.28;54.10
12475;BME280;6302;42.624;23.334;2022-08-02T08:05:36;93288.16;;;23.62;57.45
12475;BME280;6302;42.624;23.334;2022-08-02T08:08:04;93287.00;;;23.68;55.96
12475;BME280;6302;42.624;23.334;2022-08-02T08:10:30;93276.41;;;23.65;55.83
12475;BME280;6302;42.624;23.334;2022-08-02T08:12:58;93282.59;;;23.71;57.57
12475;BME280;6302;42.624;23.334;2022-08-02T08:15:26;93281.13;;;23.95;55.99
12475;BME280;6302;42.624;23.334;2022-08-02T08:17:54;93279.38;;;24.13;54.30
12475;BME280;6302;42.624;23.334;2022-08-02T08:22:58;93280.06;;;24.08;53.23
12475;BME280;6302;42.624;23.334;2022-08-02T08:25:25;93287.34;;;24.22;54.19
12475;BME280;6302;42.624;23.334;2022-08-02T08:27:52;93285.91;;;24.26;52.49
12475;BME280;6302;42.624;23.334;2022-08-02T08:30:20;93278.66;;;24.18;53.43
12475;BME280;6302;42.624;23.334;2022-08-02T08:32:47;93289.88;;;24.31;52.36
12475;BME280;6302;42.624;23.334;2022-08-02T08:35:14;93288.38;;;24.30;50.71
12475;BME280;6302;42.624;23.334;2022-08-02T08:37:41;93287.16;;;24.31;51.48
12475;BME280;6302;42.624;23.334;2022-08-02T08:40:11;93277.66;;;24.41;51.67
12475;BME280;6302;42.624;23.334;2022-08-02T08:42:38;93279.44;;;24.49;50.63
12475;BME280;6302;42.624;23.334;2022-08-02T08:45:06;93285.84;;;24.52;51.57
12475;BME280;6302;42.624;23.334;2022-08-02T08:47:34;93291.13;;;24.61;50.68
12475;BME280;6302;42.624;23.334;2022-08-02T08:50:04;93284.00;;;24.69;50.95
12475;BME280;6302;42.624;23.334;2022-08-02T08:52:34;93278.91;;;24.45;50.73
12475;BME280;6302;42.624;23.334;2022-08-02T08:55:02;93279.22;;;24.53;50.11
12475;BME280;6302;42.624;23.334;2022-08-02T08:57:31;93290.56;;;24.57;51.30
12475;BME280;6302;42.624;23.334;2022-08-02T09:00:00;93279.84;;;24.68;49.61
12475;BME280;6302;42.624;23.334;2022-08-02T09:02:27;93285.34;;;24.79;49.59
12475;BME280;6302;42.624;23.334;2022-08-02T09:04:54;93277.78;;;24.89;51.82
12475;BME280;6302;42.624;23.334;2022-08-02T09:07:22;93283.31;;;25.05;49.17
12475;BME280;6302;42.624;23.334;2022-08-02T09:09:49;93286.81;;;25.17;49.75
12475;BME280;6302;42.624;23.334;2022-08-02T09:12:16;93286.16;;;25.33;47.88
12475;BME280;6302;42.624;23.334;2022-08-02T09:14:45;93282.75;;;25.44;49.68
12475;BME280;6302;42.624;23.334;2022-08-02T09:17:12;93281.84;;;25.58;49.05
12475;BME280;6302;42.624;23.334;2022-08-02T09:19:39;93280.41;;;25.68;47.84
12475;BME280;6302;42.624;23.334;2022-08-02T09:22:07;93277.97;;;25.75;48.16
12475;BME280;6302;42.624;23.334;2022-08-02T09:24:43;93276.00;;;25.65;46.51
12475;BME280;6302;42.624;23.334;2022-08-02T09:27:11;93281.34;;;25.54;46.79
12475;BME280;6302;42.624;23.334;2022-08-02T09:29:38;93279.91;;;25.64;48.59
12475;BME280;6302;42.624;23.334;2022-08-02T09:32:10;93277.94;;;25.59;47.44
12475;BME280;6302;42.624;23.334;2022-08-02T09:34:47;93280.94;;;25.72;47.28
12475;BME280;6302;42.624;23.334;2022-08-02T09:37:22;93280.66;;;25.64;48.53
12475;BME280;6302;42.624;23.334;2022-08-02T09:39:49;93274.91;;;25.46;48.98
12475;BME280;6302;42.624;23.334;2022-08-02T09:42:17;93273.16;;;25.43;47.54
12475;BME280;6302;42.624;23.334;2022-08-02T09:44:54;93278.00;;;25.81;47.21
12475;BME280;6302;42.624;23.334;2022-08-02T09:47:23;93281.81;;;26.11;45.44
12475;BME280;6302;42.624;23.334;2022-08-02T09:49:53;93281.00;;;26.05;44.98
12475;BME280;6302;42.624;23.334;2022-08-02T09:52:22;93266.47;;;26.08;44.25
12475;BME280;6302;42.624;23.334;2022-08-02T09:54:49;93268.75;;;26.26;44.28
12475;BME280;6302;42.624;23.334;2022-08-02T09:57:25;93273.44;;;26.37;42.59
12475;BME280;6302;42.624;23.334;2022-08-02T09:59:53;93263.31;;;26.48;42.14
12475;BME280;6302;42.624;23.334;2022-08-02T10:02:22;93258.13;;;26.62;42.46
12475;BME280;6302;42.624;23.334;2022-08-02T10:04:49;93262.09;;;26.88;43.59
12475;BME280;6302;42.624;23.334;2022-08-02T10:07:17;93261.53;;;27.18;42.89
12475;BME280;6302;42.624;23.334;2022-08-02T10:09:44;93257.28;;;27.33;43.27
12475;BME280;6302;42.624;23.334;2022-08-02T10:12:11;93257.28;;;27.33;41.59
12475;BME280;6302;42.624;23.334;2022-08-02T10:14:38;93258.00;;;27.34;41.69
12475;BME280;6302;42.624;23.334;2022-08-02T10:17:06;93264.50;;;27.20;41.40
12475;BME280;6302;42.624;23.334;2022-08-02T10:19:34;93256.09;;;27.12;42.49
12475;BME280;6302;42.624;23.334;2022-08-02T10:22:04;93254.38;;;27.09;41.54
12475;BME280;6302;42.624;23.334;2022-08-02T10:24:33;93260.13;;;26.83;41.27
12475;BME280;6302;42.624;23.334;2022-08-02T10:27:02;93254.19;;;26.52;42.70
12475;BME280;6302;42.624;23.334;2022-08-02T10:29:33;93256.38;;;26.64;42.38
12475;BME280;6302;42.624;23.334;2022-08-02T10:32:02;93260.84;;;26.73;43.23
12475;BME280;6302;42.624;23.334;2022-08-02T10:34:35;93254.19;;;26.85;41.28
12475;BME280;6302;42.624;23.334;2022-08-02T10:37:04;93258.13;;;26.89;44.33
12475;BME280;6302;42.624;23.334;2022-08-02T10:39:37;93254.66;;;27.05;42.32
12475;BME280;6302;42.624;23.334;2022-08-02T10:42:05;93255.56;;;27.30;42.40
12475;BME280;6302;42.624;23.334;2022-08-02T10:44:33;93247.59;;;27.54;41.19
12475;BME280;6302;42.624;23.334;2022-08-02T10:47:20;93245.19;;;27.92;43.76
12475;BME280;6302;42.624;23.334;2022-08-02T10:49:50;93250.44;;;28.25;40.68
12475;BME280;6302;42.624;23.334;2022-08-02T10:52:18;93240.06;;;28.18;39.58
12475;BME280;6302;42.624;23.334;2022-08-02T10:54:53;93239.91;;;28.40;40.03
12475;BME280;6302;42.624;23.334;2022-08-02T10:57:22;93253.69;;;28.53;39.80
12475;BME280;6302;42.624;23.334;2022-08-02T10:59:50;93250.16;;;28.28;41.57
12475;BME280;6302;42.624;23.334;2022-08-02T11:02:35;93250.63;;;27.92;41.78
12475;BME280;6302;42.624;23.334;2022-08-02T11:05:06;93249.44;;;27.82;41.24
12475;BME280;6302;42.624;23.334;2022-08-02T11:07:36;93241.47;;;27.89;39.93
12475;BME280;6302;42.624;23.334;2022-08-02T11:10:35;93241.78;;;28.21;40.02
12475;BME280;6302;42.624;23.334;2022-08-02T11:13:08;93242.47;;;28.27;40.07
12475;BME280;6302;42.624;23.334;2022-08-02T11:15:56;93251.56;;;28.00;39.53
12475;BME280;6302;42.624;23.334;2022-08-02T11:19:01;93243.22;;;27.87;41.24
12475;BME280;6302;42.624;23.334;2022-08-02T11:21:31;93239.91;;;28.05;42.17
12475;BME280;6302;42.624;23.334;2022-08-02T11:24:27;93242.59;;;28.46;39.63
12475;BME280;6302;42.624;23.334;2022-08-02T11:26:56;93242.13;;;28.77;38.41
12475;BME280;6302;42.624;23.334;2022-08-02T11:29:31;93235.25;;;28.94;37.84
12475;BME280;6302;42.624;23.334;2022-08-02T11:31:59;93235.03;;;28.92;39.17
12475;BME280;6302;42.624;23.334;2022-08-02T11:34:26;93240.66;;;29.00;39.70
12475;BME280;6302;42.624;23.334;2022-08-02T11:36:54;93232.66;;;29.32;39.10
12475;BME280;6302;42.624;23.334;2022-08-02T11:39:22;93235.81;;;29.60;37.56
12475;BME280;6302;42.624;23.334;2022-08-02T11:41:50;93232.59;;;29.80;37.14
12475;BME280;6302;42.624;23.334;2022-08-02T11:44:17;93239.09;;;29.77;36.53
12475;BME280;6302;42.624;23.334;2022-08-02T11:46:52;93217.84;;;29.27;37.30
12475;BME280;6302;42.624;23.334;2022-08-02T11:49:19;93233.41;;;29.32;37.67
12475;BME280;6302;42.624;23.334;2022-08-02T11:51:55;93224.41;;;29.37;39.54
12475;BME280;6302;42.624;23.334;2022-08-02T11:54:26;93228.81;;;29.22;37.44
12475;BME280;6302;42.624;23.334;2022-08-02T11:56:54;93234.63;;;28.83;38.13
12475;BME280;6302;42.624;23.334;2022-08-02T11:59:20;93229.03;;;28.70;39.21
12475;BME280;6302;42.624;23.334;2022-08-02T12:01:47;93228.59;;;28.66;39.79
12475;BME280;6302;42.624;23.334;2022-08-02T12:04:16;93228.81;;;28.32;40.47
12475;BME280;6302;42.624;23.334;2022-08-02T12:06:53;93231.22;;;28.12;39.97
12475;BME280;6302;42.624;23.334;2022-08-02T12:09:21;93229.47;;;28.14;40.36
12475;BME280;6302;42.624;23.334;2022-08-02T12:11:48;93231.22;;;28.12;39.35
12475;BME280;6302;42.624;23.334;2022-08-02T12:14:16;93229.69;;;28.16;39.69
12475;BME280;6302;42.624;23.334;2022-08-02T12:16:44;93219.56;;;28.11;41.21
12475;BME280;6302;42.624;23.334;2022-08-02T12:19:28;93229.50;;;28.09;40.79
12475;BME280;6302;42.624;23.334;2022-08-02T12:22:11;93223.72;;;28.18;40.77
12475;BME280;6302;42.624;23.334;2022-08-02T12:24:41;93229.66;;;28.52;43.18
12475;BME280;6302;42.624;23.334;2022-08-02T12:27:08;93225.06;;;28.41;39.41
12475;BME280;6302;42.624;23.334;2022-08-02T12:29:37;93221.19;;;28.25;40.28
12475;BME280;6302;42.624;23.334;2022-08-02T12:32:04;93217.06;;;28.49;40.49
12475;BME280;6302;42.624;23.334;2022-08-02T12:34:33;93219.97;;;28.56;40.09
12475;BME280;6302;42.624;23.334;2022-08-02T12:37:03;93221.91;;;28.31;39.75
12475;BME280;6302;42.624;23.334;2022-08-02T12:39:36;93216.66;;;28.39;40.65
12475;BME280;6302;42.624;23.334;2022-08-02T12:42:05;93221.53;;;28.46;39.53
12475;BME280;6302;42.624;23.334;2022-08-02T12:44:32;93217.72;;;28.60;41.00
12475;BME280;6302;42.624;23.334;2022-08-02T12:47:01;93222.28;;;28.76;38.86
12475;BME280;6302;42.624;23.334;2022-08-02T12:49:29;93211.91;;;28.99;40.36
12475;BME280;6302;42.624;23.334;2022-08-02T12:51:56;93218.78;;;29.30;39.67
12475;BME280;6302;42.624;23.334;2022-08-02T12:54:25;93225.13;;;29.14;38.69
12475;BME280;6302;42.624;23.334;2022-08-02T12:56:52;93224.88;;;28.93;37.89
12475;BME280;6302;42.624;23.334;2022-08-02T12:59:36;93212.03;;;28.88;39.95
12475;BME280;6302;42.624;23.334;2022-08-02T13:02:05;93209.16;;;28.99;39.32
12475;BME280;6302;42.624;23.334;2022-08-02T13:04:32;93211.72;;;28.91;38.20
12475;BME280;6302;42.624;23.334;2022-08-02T13:06:59;93212.63;;;28.99;37.58
12475;BME280;6302;42.624;23.334;2022-08-02T13:09:26;93216.50;;;29.10;38.23
12475;BME280;6302;42.624;23.334;2022-08-02T13:11:53;93208.72;;;29.19;37.70
12475;BME280;6302;42.624;23.334;2022-08-02T13:14:20;93200.13;;;29.10;37.41